Time;durP1;ratioP1;P1;durP2;ratioP2;P2;SDS_P1;SDS_P2;PMS_P1;PMS_P2;Temp;Humidity;BMP_temperature;BMP_pressure;BME280_temperature;BME280_humidity;BME280_pressure;Samples;Min_cycle;Max_cycle;Signal;HPM_P1;HPM_P2
2022/04/28 00:03:22;;;;;;;24.85;12.23;;;;;;;;;;10470510;28;20235;-67
2022/04/28 00:08:25;;;;;;;21.58;11.60;;;;;;;;;;10472517;28;20087;-67
2022/04/28 00:13:29;;;;;;;15.57;10.50;;;;;;;;;;10472181;28;20394;-66
2022/04/28 00:18:38;;;;;;;16.55;10.02;;;;;;;;;;10472744;28;20045;-67
2022/04/28 00:23:40;;;;;;;15.23;9.60;;;;;;;;;;10471830;28;20060;-67
2022/04/28 00:28:44;;;;;;;14.25;9.18;;;;;;;;;;10470061;28;20032;-67
2022/04/28 00:33:48;;;;;;;14.77;8.63;;;;;;;;;;10470847;28;20098;-67
2022/04/28 00:38:50;;;;;;;13.30;8.30;;;;;;;;;;10471976;28;20056;-67
2022/04/28 00:43:54;;;;;;;12.68;8.18;;;;;;;;;;10471944;28;20041;-67
2022/04/28 00:54:16;;;;;;;15.43;8.30;;;;;;;;;;10486534;28;20079;-67
2022/04/28 00:59:23;;;;;;;12.95;7.78;;;;;;;;;;10472088;28;20052;-67
2022/04/28 01:04:26;;;;;;;11.05;7.50;;;;;;;;;;10470275;28;20060;-67
2022/04/28 01:09:29;;;;;;;12.65;7.45;;;;;;;;;;10473469;28;20056;-67
2022/04/28 01:14:32;;;;;;;21.15;8.25;;;;;;;;;;10472083;28;20060;-67
2022/04/28 01:19:35;;;;;;;20.35;8.38;;;;;;;;;;10471878;28;20056;-66
2022/04/28 01:24:39;;;;;;;10.98;7.88;;;;;;;;;;10472690;28;20072;-67
2022/04/28 01:29:42;;;;;;;16.50;8.75;;;;;;;;;;10472996;28;20045;-67
2022/04/28 01:34:44;;;;;;;13.32;8.48;;;;;;;;;;10470568;28;20103;-67
2022/04/28 01:39:48;;;;;;;13.23;8.45;;;;;;;;;;10470954;28;20333;-67
2022/04/28 01:44:50;;;;;;;11.88;8.30;;;;;;;;;;10472070;28;20259;-67
2022/04/28 01:49:53;;;;;;;12.68;8.13;;;;;;;;;;10475982;28;20041;-67
2022/04/28 01:54:59;;;;;;;14.43;9.25;;;;;;;;;;10478313;28;20062;-67
2022/04/28 02:00:03;;;;;;;12.82;8.85;;;;;;;;;;10492916;28;20056;-67
2022/04/28 02:05:08;;;;;;;15.68;9.32;;;;;;;;;;10478282;28;20283;-68
2022/04/28 02:10:12;;;;;;;17.92;9.73;;;;;;;;;;10479601;28;20084;-67
2022/04/28 02:15:15;;;;;;;19.15;9.80;;;;;;;;;;10478162;28;20053;-66
2022/04/28 02:20:18;;;;;;;18.13;10.68;;;;;;;;;;10438730;28;20244;-67
2022/04/28 02:25:23;;;;;;;22.98;11.07;;;;;;;;;;10472333;28;20076;-68
2022/04/28 02:30:26;;;;;;;17.60;10.65;;;;;;;;;;10478851;28;20056;-67
2022/04/28 02:35:28;;;;;;;17.40;10.80;;;;;;;;;;10477621;28;20037;-67
2022/04/28 02:40:31;;;;;;;19.33;10.77;;;;;;;;;;10477127;28;20371;-66
2022/04/28 02:45:34;;;;;;;22.35;12.07;;;;;;;;;;10477940;28;20064;-68
2022/04/28 02:50:36;;;;;;;17.75;11.38;;;;;;;;;;10477768;28;20045;-67
2022/04/28 02:55:40;;;;;;;22.00;11.80;;;;;;;;;;10437687;28;20072;-68
2022/04/28 03:00:43;;;;;;;17.75;10.00;;;;;;;;;;10440460;28;20057;-67
2022/04/28 03:11:06;;;;;;;15.90;9.88;;;;;;;;;;10490763;28;20052;-67
2022/04/28 03:16:09;;;;;;;17.50;9.93;;;;;;;;;;10476178;28;20378;-68
2022/04/28 03:21:11;;;;;;;14.70;9.18;;;;;;;;;;10476014;28;20048;-66
2022/04/28 03:26:15;;;;;;;14.48;9.05;;;;;;;;;;10475666;28;20057;-67
2022/04/28 03:31:19;;;;;;;22.13;11.45;;;;;;;;;;10476584;28;20044;-67
2022/04/28 03:41:41;;;;;;;20.42;12.65;;;;;;;;;;10467086;28;20061;-68
2022/04/28 03:46:44;;;;;;;21.40;12.00;;;;;;;;;;10471577;28;20037;-68
2022/04/28 03:51:46;;;;;;;19.38;10.82;;;;;;;;;;10475678;28;20053;-68
2022/04/28 03:56:50;;;;;;;19.00;11.63;;;;;;;;;;10475545;28;20056;-68
2022/04/28 04:01:52;;;;;;;28.92;14.93;;;;;;;;;;10472099;28;20041;-67
2022/04/28 04:06:54;;;;;;;38.10;17.95;;;;;;;;;;10474949;28;20056;-67
2022/04/28 04:11:58;;;;;;;18.52;10.35;;;;;;;;;;10474644;28;20068;-67
2022/04/28 04:17:01;;;;;;;16.67;8.82;;;;;;;;;;10474799;28;20049;-67
2022/04/28 04:22:04;;;;;;;19.00;10.45;;;;;;;;;;10474696;28;20045;-67
2022/04/28 04:27:09;;;;;;;19.50;12.20;;;;;;;;;;10474885;28;20339;-68
2022/04/28 04:32:25;;;;;;;14.30;11.20;;;;;;;;;;10474964;28;20244;-67
2022/04/28 04:37:28;;;;;;;16.55;11.05;;;;;;;;;;10487613;28;20048;-66
2022/04/28 04:42:32;;;;;;;17.25;12.02;;;;;;;;;;10474090;28;20048;-67
2022/04/28 04:47:34;;;;;;;14.10;9.77;;;;;;;;;;10473375;28;20053;-67
2022/04/28 04:52:37;;;;;;;11.45;8.38;;;;;;;;;;10473679;28;20473;-68
2022/04/28 04:57:40;;;;;;;11.15;7.70;;;;;;;;;;10473927;28;20044;-67
2022/04/28 05:02:42;;;;;;;13.40;7.25;;;;;;;;;;10473238;28;20045;-67
2022/04/28 05:07:45;;;;;;;5.88;5.00;;;;;;;;;;10473257;28;20320;-67
2022/04/28 05:12:48;;;;;;;8.63;4.53;;;;;;;;;;10466336;28;20243;-67
2022/04/28 05:17:51;;;;;;;9.07;4.30;;;;;;;;;;10473376;28;20210;-68
2022/04/28 05:22:53;;;;;;;6.68;4.00;;;;;;;;;;10472972;28;20041;-67
2022/04/28 05:27:57;;;;;;;4.43;4.00;;;;;;;;;;10490408;28;20044;-67
2022/04/28 05:32:59;;;;;;;6.68;3.90;;;;;;;;;;10474959;28;20244;-67
2022/04/28 05:38:02;;;;;;;4.20;3.78;;;;;;;;;;10480715;28;20049;-68
2022/04/28 05:48:34;;;;;;;4.78;3.70;;;;;;;;;;10392319;28;20056;-68
2022/04/28 05:53:36;;;;;;;12.38;3.85;;;;;;;;;;10393607;28;20096;-67
2022/04/28 05:58:40;;;;;;;6.03;4.18;;;;;;;;;;10392590;28;20057;-68
2022/04/28 06:03:43;;;;;;;3.92;3.53;;;;;;;;;;10391684;28;20062;-68
2022/04/28 06:08:45;;;;;;;4.93;3.47;;;;;;;;;;10393407;28;20116;-68
2022/04/28 06:13:50;;;;;;;6.60;3.72;;;;;;;;;;10366330;28;20054;-68
2022/04/28 06:18:52;;;;;;;5.35;4.20;;;;;;;;;;10352388;28;20130;-68
2022/04/28 06:23:54;;;;;;;6.30;3.70;;;;;;;;;;10408978;28;20098;-68
2022/04/28 06:28:59;;;;;;;6.97;3.50;;;;;;;;;;10479077;28;20060;-68
2022/04/28 06:34:01;;;;;;;5.53;3.10;;;;;;;;;;10478515;28;20045;-67
2022/04/28 06:39:04;;;;;;;4.97;2.90;;;;;;;;;;10455812;28;20041;-68
2022/04/28 06:44:07;;;;;;;4.35;3.22;;;;;;;;;;10438856;28;20252;-68
2022/04/28 06:49:10;;;;;;;5.47;2.90;;;;;;;;;;10438430;28;20341;-67
2022/04/28 06:54:12;;;;;;;6.88;3.20;;;;;;;;;;10463021;28;20048;-67
2022/04/28 06:59:16;;;;;;;5.05;3.30;;;;;;;;;;10477503;28;20048;-67
2022/04/28 07:04:18;;;;;;;3.25;3.00;;;;;;;;;;10477582;28;20041;-67
2022/04/28 07:09:20;;;;;;;3.83;2.88;;;;;;;;;;10476507;28;20099;-67
2022/04/28 07:14:24;;;;;;;4.20;3.30;;;;;;;;;;10476712;28;20053;-68
2022/04/28 07:19:27;;;;;;;4.55;3.08;;;;;;;;;;10476997;28;20049;-66
2022/04/28 07:24:30;;;;;;;3.88;2.83;;;;;;;;;;10475955;28;20069;-68
2022/04/28 07:29:35;;;;;;;5.70;2.70;;;;;;;;;;10476735;28;20354;-68
2022/04/28 07:34:37;;;;;;;4.33;2.60;;;;;;;;;;10466462;28;20056;-68
2022/04/28 07:39:39;;;;;;;5.65;2.92;;;;;;;;;;10434568;28;20087;-68
2022/04/28 07:44:43;;;;;;;3.20;2.90;;;;;;;;;;10435057;28;20275;-67
2022/04/28 07:49:45;;;;;;;4.50;3.28;;;;;;;;;;10446391;28;20049;-67
2022/04/28 07:54:48;;;;;;;3.70;2.90;;;;;;;;;;10475447;28;20048;-67
2022/04/28 07:59:52;;;;;;;6.03;3.60;;;;;;;;;;10474776;28;20048;-68
2022/04/28 08:04:54;;;;;;;;;;;;;;;;;;10475322;28;20091;-68
2022/04/28 08:09:56;;;;;;;3.95;3.30;;;;;;;;;;10475261;28;19947;-68
2022/04/28 08:15:00;;;;;;;5.57;3.33;;;;;;;;;;10474326;28;20367;-67
2022/04/28 08:20:03;;;;;;;4.50;2.92;;;;;;;;;;10473911;28;20048;-66
2022/04/28 08:25:08;;;;;;;3.17;2.70;;;;;;;;;;10473223;28;20115;-67
2022/04/28 08:30:13;;;;;;;5.50;3.13;;;;;;;;;;10471871;28;20041;-67
2022/04/28 08:35:15;;;;;;;3.60;3.20;;;;;;;;;;10473398;28;20049;-68
2022/04/28 08:40:18;;;;;;;4.25;3.83;;;;;;;;;;10473319;28;20037;-69
2022/04/28 08:45:28;;;;;;;11.20;4.07;;;;;;;;;;10473986;28;20091;-68
2022/04/28 08:50:32;;;;;;;3.95;3.65;;;;;;;;;;10473796;28;20359;-67
2022/04/28 08:55:34;;;;;;;3.85;3.45;;;;;;;;;;10465207;28;20360;-68
2022/04/28 09:00:39;;;;;;;3.50;2.80;;;;;;;;;;10431787;28;20057;-67
2022/04/28 09:05:41;;;;;;;3.90;2.60;;;;;;;;;;10432353;28;20045;-69
2022/04/28 09:10:44;;;;;;;2.72;2.50;;;;;;;;;;10450824;28;20041;-67
2022/04/28 09:15:50;;;;;;;4.55;2.50;;;;;;;;;;10473066;28;20273;-67
2022/04/28 09:20:52;;;;;;;4.28;2.85;;;;;;;;;;10472952;28;20048;-67
2022/04/28 09:25:56;;;;;;;5.68;2.70;;;;;;;;;;10472000;28;20057;-68
2022/04/28 09:31:00;;;;;;;3.30;2.60;;;;;;;;;;10472812;28;20048;-67
2022/04/28 09:36:04;;;;;;;8.75;7.15;;;;;;;;;;10472113;28;20053;-67
2022/04/28 09:46:31;;;;;;;9.85;4.93;;;;;;;;;;10472997;28;20102;-68
2022/04/28 09:51:37;;;;;;;8.32;5.40;;;;;;;;;;10470817;28;20053;-67
2022/04/28 09:56:41;;;;;;;15.68;6.18;;;;;;;;;;10486240;28;20045;-67
2022/04/28 10:01:46;;;;;;;6.78;6.07;;;;;;;;;;10471949;28;20091;-67
2022/04/28 10:06:49;;;;;;;7.93;6.63;;;;;;;;;;10472071;28;20387;-67
2022/04/28 10:11:52;;;;;;;8.68;6.72;;;;;;;;;;10476975;28;20056;-68
2022/04/28 10:16:57;;;;;;;;;;;;;;;;;;10479633;28;20341;-67
2022/04/28 10:22:05;;;;;;;10.07;7.13;;;;;;;;;;10477793;28;20216;-68
2022/04/28 10:32:57;;;;;;;12.57;7.10;;;;;;;;;;10482305;28;20082;-68
2022/04/28 10:38:06;;;;;;;12.07;7.30;;;;;;;;;;10477726;28;20322;-66
2022/04/28 10:43:25;;;;;;;10.00;7.20;;;;;;;;;;10492003;28;20331;-67
2022/04/28 10:48:33;;;;;;;9.20;8.27;;;;;;;;;;10477769;28;20052;-67
2022/04/28 10:53:36;;;;;;;12.80;8.00;;;;;;;;;;10491846;28;20057;-66
2022/04/28 10:58:38;;;;;;;9.15;7.85;;;;;;;;;;10478035;28;20055;-66
2022/04/28 11:03:47;;;;;;;15.48;7.80;;;;;;;;;;10477192;28;20079;-66
2022/04/28 11:08:51;;;;;;;12.32;7.85;;;;;;;;;;10471709;28;20324;-67
2022/04/28 11:13:57;;;;;;;9.60;6.47;;;;;;;;;;10477291;28;20064;-67
2022/04/28 11:19:03;;;;;;;14.23;8.20;;;;;;;;;;10476708;28;20056;-66
2022/04/28 11:24:07;;;;;;;9.45;6.93;;;;;;;;;;10473628;28;20356;-67
2022/04/28 11:29:10;;;;;;;7.45;6.65;;;;;;;;;;10476857;28;20229;-68
2022/04/28 11:34:14;;;;;;;7.07;6.47;;;;;;;;;;10476904;28;20052;-67
2022/04/28 11:39:16;;;;;;;12.00;6.70;;;;;;;;;;10475196;28;20045;-68
2022/04/28 11:44:19;;;;;;;8.05;7.25;;;;;;;;;;10476099;28;20048;-68
2022/04/28 11:49:23;;;;;;;9.52;7.10;;;;;;;;;;10474648;28;20351;-67
2022/04/28 11:54:27;;;;;;;9.15;6.60;;;;;;;;;;10476192;28;20053;-68
2022/04/28 11:59:35;;;;;;;7.55;6.60;;;;;;;;;;10475077;28;20053;-66
2022/04/28 12:04:42;;;;;;;8.40;6.40;;;;;;;;;;10471684;28;20372;-67
2022/04/28 12:15:08;;;;;;;12.82;7.20;;;;;;;;;;10488510;28;20048;-67
2022/04/28 12:20:12;;;;;;;9.10;7.05;;;;;;;;;;10473829;28;20341;-67
2022/04/28 12:25:16;;;;;;;17.83;6.47;;;;;;;;;;10473666;28;20106;-67
2022/04/28 12:30:20;;;;;;;10.85;7.30;;;;;;;;;;10474270;28;20041;-67
2022/04/28 12:35:30;;;;;;;14.13;8.32;;;;;;;;;;10472700;28;20045;-67
2022/04/28 12:40:39;;;;;;;10.15;7.38;;;;;;;;;;10488378;28;20040;-68
2022/04/28 12:45:50;;;;;;;7.80;6.93;;;;;;;;;;10473625;28;20049;-67
2022/04/28 12:56:29;;;;;;;6.55;5.95;;;;;;;;;;10636517;27;20391;-68
2022/04/28 13:01:32;;;;;;;8.73;6.88;;;;;;;;;;10650162;27;20126;-68
2022/04/28 13:06:38;;;;;;;21.93;6.80;;;;;;;;;;10636281;27;20040;-68
2022/04/28 13:11:43;;;;;;;8.00;6.00;;;;;;;;;;10649962;27;20290;-67
2022/04/28 13:16:46;;;;;;;25.20;6.18;;;;;;;;;;10634291;27;20063;-67
2022/04/28 13:21:49;;;;;;;9.17;6.00;;;;;;;;;;10620848;27;20291;-70
2022/04/28 13:26:53;;;;;;;29.58;16.23;;;;;;;;;;10592436;28;20040;-68
2022/04/28 13:31:55;;;;;;;11.80;6.50;;;;;;;;;;10591108;28;20051;-69
2022/04/28 13:36:58;;;;;;;7.70;6.13;;;;;;;;;;10591192;28;20257;-66
2022/04/28 13:42:02;;;;;;;11.32;6.25;;;;;;;;;;10591569;28;20044;-67
2022/04/28 13:47:06;;;;;;;8.85;6.10;;;;;;;;;;10590825;28;20046;-67
2022/04/28 13:52:09;;;;;;;9.90;6.57;;;;;;;;;;10589531;28;20078;-68
2022/04/28 13:57:13;;;;;;;8.98;6.63;;;;;;;;;;10591374;28;20040;-67
2022/04/28 14:02:15;;;;;;;17.23;7.82;;;;;;;;;;10589588;28;20129;-67
2022/04/28 14:07:18;;;;;;;11.30;5.55;;;;;;;;;;10564662;28;20032;-68
2022/04/28 14:12:22;;;;;;;13.73;7.53;;;;;;;;;;10560726;28;20059;-67
2022/04/28 14:17:24;;;;;;;40.72;6.35;;;;;;;;;;10557382;28;20048;-67
2022/04/28 14:22:27;;;;;;;11.35;5.80;;;;;;;;;;10519057;28;20063;-67
2022/04/28 14:33:41;;;;;;;10.13;6.47;;;;;;;;;;10561412;28;20086;-67
2022/04/28 14:38:44;;;;;;;8.43;5.30;;;;;;;;;;10560842;28;20045;-67
2022/04/28 14:43:46;;;;;;;5.95;4.57;;;;;;;;;;10560930;28;20043;-66
2022/04/28 14:59:47;;;;;;;8.57;5.50;;;;;;;;;;11984566;23;20120;-70
2022/04/28 15:11:07;;;;;;;10.65;5.80;;;;;;;;;;10079561;29;20335;-69
2022/04/28 15:16:09;;;;;;;8.23;6.03;;;;;;;;;;10077245;29;20086;-67
2022/04/28 15:21:12;;;;;;;7.60;6.05;;;;;;;;;;10077079;29;20049;-66
2022/04/28 15:26:18;;;;;;;13.30;5.80;;;;;;;;;;10101885;29;20074;-68
2022/04/28 15:31:21;;;;;;;7.90;6.15;;;;;;;;;;10090162;29;20053;-69
2022/04/28 15:36:23;;;;;;;16.23;6.07;;;;;;;;;;10076808;29;20049;-69
2022/04/28 15:41:27;;;;;;;8.68;6.53;;;;;;;;;;10093393;29;20335;-67
2022/04/28 15:46:29;;;;;;;8.90;6.33;;;;;;;;;;10073412;29;20060;-67
2022/04/28 15:51:32;;;;;;;19.77;7.35;;;;;;;;;;10077252;29;20240;-67
2022/04/28 15:56:36;;;;;;;8.65;6.32;;;;;;;;;;10076651;29;20054;-68
2022/04/28 16:01:39;;;;;;;8.57;6.13;;;;;;;;;;10114598;29;20061;-69
2022/04/28 16:06:42;;;;;;;8.68;6.50;;;;;;;;;;10112201;29;20049;-67
2022/04/28 16:11:45;;;;;;;8.13;6.40;;;;;;;;;;10113047;29;20273;-67
2022/04/28 16:16:48;;;;;;;14.98;7.38;;;;;;;;;;10076906;29;20061;-68
2022/04/28 16:21:53;;;;;;;15.88;7.22;;;;;;;;;;10097993;29;20377;-68
2022/04/28 16:26:57;;;;;;;10.25;7.05;;;;;;;;;;10126146;29;20053;-68
2022/04/28 16:32:00;;;;;;;8.90;6.75;;;;;;;;;;10045668;29;20060;-67
2022/04/28 16:37:02;;;;;;;9.35;6.90;;;;;;;;;;10099133;29;20045;-67
2022/04/28 16:42:07;;;;;;;7.18;6.03;;;;;;;;;;10112688;29;20071;-66
2022/04/28 16:47:11;;;;;;;9.82;5.22;;;;;;;;;;10113223;29;20041;-67
2022/04/28 16:52:14;;;;;;;14.57;5.50;;;;;;;;;;10112652;29;20053;-68
2022/04/28 16:57:17;;;;;;;7.95;6.50;;;;;;;;;;10113526;29;20323;-69
2022/04/28 17:02:23;;;;;;;10.45;6.20;;;;;;;;;;10113700;29;20324;-67
2022/04/28 17:07:25;;;;;;;12.57;6.40;;;;;;;;;;10123906;29;20247;-69
2022/04/28 17:12:30;;;;;;;11.82;8.07;;;;;;;;;;10113961;29;20048;-69
2022/04/28 17:17:33;;;;;;;18.08;8.55;;;;;;;;;;10110225;29;20268;-68
2022/04/28 17:22:37;;;;;;;11.40;7.40;;;;;;;;;;10076028;29;20072;-67
2022/04/28 17:27:41;;;;;;;14.20;6.65;;;;;;;;;;10113388;29;20052;-67
2022/04/28 17:32:44;;;;;;;13.88;5.95;;;;;;;;;;10111062;29;20056;-68
2022/04/28 17:37:47;;;;;;;7.82;6.63;;;;;;;;;;10085259;29;20216;-67
2022/04/28 17:42:51;;;;;;;7.45;6.40;;;;;;;;;;10083352;29;20106;-67
2022/04/28 17:47:54;;;;;;;8.90;6.82;;;;;;;;;;10080766;29;20060;-67
2022/04/28 17:52:57;;;;;;;8.52;6.22;;;;;;;;;;10115500;29;20053;-68
2022/04/28 18:03:21;;;;;;;19.52;9.98;;;;;;;;;;10081556;29;20057;-68
2022/04/28 18:08:24;;;;;;;46.15;23.95;;;;;;;;;;10092892;29;20042;-67
2022/04/28 18:13:28;;;;;;;21.30;9.95;;;;;;;;;;10111324;29;20048;-65
2022/04/28 18:18:30;;;;;;;35.88;13.02;;;;;;;;;;10120351;29;20116;-69
2022/04/28 18:23:32;;;;;;;30.48;10.10;;;;;;;;;;10099614;29;20044;-69
2022/04/28 18:28:37;;;;;;;19.95;10.48;;;;;;;;;;10079866;29;20056;-67
2022/04/28 18:33:40;;;;;;;14.95;8.98;;;;;;;;;;10095558;29;20113;-67
2022/04/28 18:49:24;;;;;;;30.77;12.95;;;;;;;;;;10092604;29;20046;-67
2022/04/28 18:54:29;;;;;;;26.27;12.27;;;;;;;;;;10101847;29;20052;-66
2022/04/28 18:59:35;;;;;;;19.90;12.10;;;;;;;;;;10111928;29;20079;-68
2022/04/28 19:04:38;;;;;;;20.15;8.93;;;;;;;;;;10119334;29;20061;-66
2022/04/28 19:09:42;;;;;;;15.65;8.90;;;;;;;;;;10106468;29;20053;-68
2022/04/28 19:14:55;;;;;;;24.30;13.05;;;;;;;;;;10082892;29;20053;-68
2022/04/28 19:20:03;;;;;;;18.83;11.15;;;;;;;;;;10079367;29;20057;-68
2022/04/28 19:25:07;;;;;;;17.70;11.48;;;;;;;;;;10097066;29;20388;-67
2022/04/28 19:30:12;;;;;;;22.67;11.48;;;;;;;;;;10094745;29;20053;-67
2022/04/28 19:35:15;;;;;;;20.63;12.57;;;;;;;;;;10116039;29;20046;-67
2022/04/28 19:40:17;;;;;;;21.58;13.18;;;;;;;;;;10104491;29;20045;-65
2022/04/28 19:45:22;;;;;;;23.23;14.50;;;;;;;;;;10106801;29;20056;-69
2022/04/28 19:50:24;;;;;;;28.83;17.35;;;;;;;;;;10113395;29;20048;-69
2022/04/28 19:55:26;;;;;;;32.90;18.13;;;;;;;;;;10101677;29;20238;-66
2022/04/28 20:00:30;;;;;;;29.35;17.17;;;;;;;;;;10113033;29;20057;-68
2022/04/28 20:05:33;;;;;;;31.73;19.55;;;;;;;;;;10094092;29;20247;-68
2022/04/28 20:10:35;;;;;;;93.03;45.88;;;;;;;;;;10075476;29;20053;-66
2022/04/28 20:15:39;;;;;;;52.25;29.13;;;;;;;;;;10082090;29;20281;-67
2022/04/28 20:20:41;;;;;;;43.45;28.13;;;;;;;;;;10101687;29;20048;-67
2022/04/28 20:25:45;;;;;;;31.15;17.08;;;;;;;;;;10090513;29;20091;-68
2022/04/28 20:30:49;;;;;;;28.60;17.42;;;;;;;;;;10086922;29;20044;-66
2022/04/28 20:35:51;;;;;;;31.33;17.92;;;;;;;;;;10095740;29;20046;-67
2022/04/28 20:40:55;;;;;;;38.20;21.05;;;;;;;;;;10095163;29;20046;-67
2022/04/28 20:45:59;;;;;;;65.38;33.45;;;;;;;;;;10097440;29;20052;-68
2022/04/28 20:51:02;;;;;;;53.88;27.95;;;;;;;;;;10092073;29;20049;-66
2022/04/28 20:56:05;;;;;;;48.70;25.95;;;;;;;;;;10090511;29;20050;-67
2022/04/28 21:01:10;;;;;;;58.20;28.42;;;;;;;;;;10093548;29;20053;-67
2022/04/28 21:06:15;;;;;;;45.03;24.15;;;;;;;;;;10094233;29;20060;-67
2022/04/28 21:11:17;;;;;;;;;;;;;;;;;;10111412;29;20053;-67
2022/04/28 21:16:21;;;;;;;46.95;24.38;;;;;;;;;;10079576;29;19951;-66
2022/04/28 21:21:24;;;;;;;44.17;26.13;;;;;;;;;;10082435;29;20337;-68
2022/04/28 21:26:26;;;;;;;39.50;22.48;;;;;;;;;;10110862;29;20359;-67
2022/04/28 21:31:30;;;;;;;46.08;25.27;;;;;;;;;;10111214;29;20053;-66
2022/04/28 21:36:33;;;;;;;62.15;31.25;;;;;;;;;;10104991;29;20048;-67
2022/04/28 21:41:36;;;;;;;55.72;33.53;;;;;;;;;;10110103;29;20066;-66
2022/04/28 21:46:40;;;;;;;62.33;32.63;;;;;;;;;;10081258;29;20105;-67
2022/04/28 21:51:42;;;;;;;56.92;31.23;;;;;;;;;;10080969;29;20060;-68
2022/04/28 21:56:44;;;;;;;50.22;29.70;;;;;;;;;;10081586;29;20049;-67
2022/04/28 22:01:48;;;;;;;53.90;29.83;;;;;;;;;;10083436;29;20141;-67
2022/04/28 22:12:11;;;;;;;52.83;30.10;;;;;;;;;;10069389;29;20062;-67
2022/04/28 22:17:15;;;;;;;50.20;29.90;;;;;;;;;;10081743;29;20042;-67
2022/04/28 22:22:17;;;;;;;52.92;29.08;;;;;;;;;;10080614;29;20090;-67
2022/04/28 22:27:19;;;;;;;44.83;27.90;;;;;;;;;;10079289;29;20049;-66
2022/04/28 22:32:23;;;;;;;54.97;28.73;;;;;;;;;;10087943;29;20056;-67
2022/04/28 22:37:25;;;;;;;44.75;27.23;;;;;;;;;;10086211;29;20064;-67
2022/04/28 22:42:29;;;;;;;48.70;28.20;;;;;;;;;;10080670;29;20306;-67
2022/04/28 22:47:33;;;;;;;52.92;28.10;;;;;;;;;;10091983;29;20049;-66
2022/04/28 22:52:36;;;;;;;53.33;28.95;;;;;;;;;;10105057;29;20064;-67
2022/04/28 22:57:40;;;;;;;47.50;27.02;;;;;;;;;;10117585;29;20101;-68
2022/04/28 23:02:45;;;;;;;48.63;28.27;;;;;;;;;;10081561;29;20248;-66
2022/04/28 23:07:50;;;;;;;;;;;;;;;;;;10089240;29;20080;-67
2022/04/28 23:12:52;;;;;;;58.15;28.77;;;;;;;;;;10077804;29;19920;-66
2022/04/28 23:17:55;;;;;;;52.08;29.55;;;;;;;;;;10077351;29;20058;-67
2022/04/28 23:22:58;;;;;;;54.53;28.27;;;;;;;;;;10071439;29;20359;-66
2022/04/28 23:28:01;;;;;;;43.22;24.60;;;;;;;;;;10068671;29;20349;-67
2022/04/28 23:33:05;;;;;;;42.28;22.95;;;;;;;;;;10039787;29;20050;-66
2022/04/28 23:38:22;;;;;;;38.65;20.30;;;;;;;;;;10062274;29;20065;-67
2022/04/28 23:43:25;;;;;;;42.55;18.88;;;;;;;;;;10078137;29;20076;-67
2022/04/28 23:48:30;;;;;;;34.53;18.30;;;;;;;;;;10076065;29;20281;-66
2022/04/28 23:58:52;;;;;;;33.70;17.45;;;;;;;;;;10107147;29;20255;-67
